createdAt,value
2022-09-07T00:01:09.006Z,76.90
2022-09-07T00:04:12.100Z,76.72
2022-09-07T00:07:14.824Z,76.86
2022-09-07T00:10:17.755Z,76.43
2022-09-07T00:13:20.483Z,76.42
2022-09-07T00:16:29.340Z,76.15
2022-09-07T00:19:32.047Z,76.05
2022-09-07T00:22:35.350Z,76.22
2022-09-07T00:25:39.645Z,76.41
2022-09-07T00:28:43.454Z,76.40
2022-09-07T00:31:46.057Z,76.36
2022-09-07T00:34:50.840Z,76.51
2022-09-07T00:37:53.451Z,76.76
2022-09-07T00:40:56.472Z,76.80
2022-09-07T00:44:57.675Z,76.92
2022-09-07T00:48:08.810Z,77.34
2022-09-07T00:51:17.326Z,77.30
2022-09-07T00:54:27.920Z,77.36
2022-09-07T00:57:31.031Z,77.25
2022-09-07T01:00:34.980Z,77.36
2022-09-07T01:03:42.531Z,77.62
2022-09-07T01:06:45.502Z,77.58
2022-09-07T01:09:48.336Z,77.33
2022-09-07T01:12:51.649Z,77.61
2022-09-07T01:15:54.281Z,77.77
2022-09-07T01:18:57.231Z,77.67
2022-09-07T01:22:18.496Z,77.37
2022-09-07T01:25:36.643Z,77.69
2022-09-07T01:28:39.844Z,77.73
2022-09-07T01:32:07.444Z,77.75
2022-09-07T01:35:42.372Z,77.83
2022-09-07T01:38:52.504Z,78.04
2022-09-07T01:41:58.882Z,78.51
2022-09-07T01:45:04.226Z,78.58
2022-09-07T01:48:10.266Z,78.55
2022-09-07T01:51:13.313Z,78.85
2022-09-07T01:54:23.641Z,78.86
2022-09-07T01:57:31.316Z,78.94
2022-09-07T02:00:34.705Z,79.02
2022-09-07T02:04:11.599Z,79.01
2022-09-07T02:07:31.075Z,78.94
2022-09-07T02:10:40.890Z,80.34
2022-09-07T02:14:05.241Z,81.13
2022-09-07T02:17:08.044Z,82.08
2022-09-07T02:20:16.632Z,82.00
2022-09-07T02:23:22.943Z,81.77
2022-09-07T02:26:28.313Z,81.17
2022-09-07T02:29:32.230Z,80.93
2022-09-07T02:32:34.904Z,80.72
2022-09-07T02:35:37.831Z,80.36
2022-09-07T02:38:41.363Z,80.34
2022-09-07T02:41:45.738Z,80.25
2022-09-07T02:44:52.075Z,80.79
2022-09-07T02:48:13.172Z,80.38
2022-09-07T02:51:22.723Z,80.65
2022-09-07T02:54:47.821Z,80.64
2022-09-07T02:58:02.528Z,81.08
2022-09-07T03:01:23.974Z,80.96
2022-09-07T03:04:42.009Z,80.91
2022-09-07T03:08:11.015Z,80.73
2022-09-07T03:11:14.392Z,80.96
2022-09-07T03:14:20.069Z,80.97
2022-09-07T03:17:22.643Z,81.05
2022-09-07T03:20:25.568Z,81.12
2022-09-07T03:23:28.143Z,81.33
2022-09-07T03:26:31.028Z,81.55
2022-09-07T03:29:33.718Z,81.80
2022-09-07T03:32:37.646Z,81.43
2022-09-07T03:35:40.240Z,81.83
2022-09-07T03:38:43.086Z,81.83
2022-09-07T03:41:45.614Z,81.85
2022-09-07T03:44:51.402Z,82.40
2022-09-07T03:47:54.013Z,82.11
2022-09-07T03:51:01.925Z,82.12
2022-09-07T03:54:04.586Z,81.85
2022-09-07T03:57:07.675Z,81.42
2022-09-07T04:00:11.177Z,81.13
2022-09-07T04:03:14.823Z,81.28
2022-09-07T04:06:18.612Z,82.21
2022-09-07T04:09:21.251Z,82.71
2022-09-07T04:12:26.127Z,82.67
2022-09-07T04:15:29.199Z,83.01
2022-09-07T04:18:32.386Z,82.84
2022-09-07T04:21:34.991Z,82.37
2022-09-07T04:24:37.876Z,82.33
2022-09-07T04:27:40.454Z,82.16
2022-09-07T04:30:43.956Z,81.96
2022-09-07T04:33:48.135Z,81.71
2022-09-07T04:36:51.051Z,81.48
2022-09-07T04:39:53.674Z,81.74
2022-09-07T04:42:56.669Z,81.82
2022-09-07T04:46:03.078Z,81.94
2022-09-07T04:49:09.432Z,81.70
2022-09-07T04:52:12.035Z,81.43
2022-09-07T04:55:14.982Z,81.58
2022-09-07T04:58:17.891Z,81.95
2022-09-07T05:01:23.489Z,82.65
2022-09-07T05:04:26.171Z,82.71
2022-09-07T05:07:29.080Z,83.40
2022-09-07T05:10:32.057Z,83.23
2022-09-07T05:13:35.316Z,83.86
2022-09-07T05:16:37.994Z,83.71
2022-09-07T05:19:41.075Z,83.49
2022-09-07T05:22:43.657Z,83.28
2022-09-07T05:25:47.104Z,82.83
2022-09-07T05:28:50.388Z,82.49
2022-09-07T05:31:54.798Z,82.28
2022-09-07T05:34:57.429Z,82.34
2022-09-07T05:38:00.350Z,81.83
2022-09-07T05:41:20.075Z,81.14
2022-09-07T05:47:48.991Z,80.19
2022-09-07T05:50:52.980Z,79.71
2022-09-07T05:53:56.376Z,79.39
2022-09-07T05:56:59.323Z,79.35
2022-09-07T06:00:02.195Z,78.38
2022-09-07T06:03:14.813Z,77.75
2022-09-07T06:06:19.223Z,77.20
2022-09-07T06:09:21.865Z,76.45
2022-09-07T06:12:24.703Z,76.35
2022-09-07T06:15:27.306Z,75.46
2022-09-07T06:18:31.762Z,75.38
2022-09-07T06:21:38.426Z,75.32
2022-09-07T06:24:41.291Z,75.32
2022-09-07T06:27:43.845Z,74.69
2022-09-07T06:30:46.726Z,74.18
2022-09-07T06:33:50.221Z,73.53
2022-09-07T06:36:53.144Z,72.87
2022-09-07T06:39:55.925Z,73.03
2022-09-07T06:42:58.911Z,72.54
2022-09-07T06:49:25.567Z,71.70
2022-09-07T06:52:28.298Z,71.78
2022-09-07T06:55:31.336Z,70.84
2022-09-07T06:58:38.003Z,70.67
2022-09-07T07:01:43.418Z,70.43
2022-09-07T07:04:46.711Z,69.45
2022-09-07T07:07:49.580Z,69.27
2022-09-07T07:10:52.566Z,69.03
2022-09-07T07:13:55.455Z,68.87
2022-09-07T07:16:58.099Z,67.16
2022-09-07T07:20:01.034Z,67.60
2022-09-07T07:23:03.843Z,67.32
2022-09-07T07:26:12.649Z,67.05
2022-09-07T07:29:18.515Z,66.65
2022-09-07T07:32:21.899Z,65.26
2022-09-07T07:35:24.443Z,65.02
2022-09-07T07:41:53.802Z,64.29
2022-09-07T07:48:21.577Z,63.58
2022-09-07T07:51:24.911Z,63.79
2022-09-07T07:54:27.465Z,61.74
2022-09-07T07:57:30.407Z,62.11
2022-09-07T08:00:52.875Z,61.80
2022-09-07T08:03:55.850Z,61.97
2022-09-07T08:06:58.339Z,61.20
2022-09-07T08:10:01.321Z,60.59
2022-09-07T08:13:04.369Z,59.47
2022-09-07T08:16:08.175Z,59.48
2022-09-07T08:19:10.888Z,59.21
2022-09-07T08:22:13.816Z,58.73
2022-09-07T08:25:17.483Z,58.42
2022-09-07T08:28:26.305Z,58.40
2022-09-07T08:31:28.978Z,58.04
2022-09-07T08:34:32.020Z,56.80
2022-09-07T08:37:34.480Z,56.63
2022-09-07T08:40:38.068Z,56.60
2022-09-07T08:43:53.128Z,55.55
2022-09-07T08:47:00.606Z,55.25
2022-09-07T08:50:06.745Z,54.09
2022-09-07T08:53:19.213Z,55.20
2022-09-07T08:56:36.083Z,54.90
2022-09-07T08:59:47.717Z,54.58
2022-09-07T09:06:28.632Z,53.21
2022-09-07T09:09:45.534Z,52.66
2022-09-07T09:13:02.905Z,52.01
2022-09-07T09:16:13.255Z,50.10
2022-09-07T09:20:00.689Z,50.70
2022-09-07T09:23:14.935Z,49.52
2022-09-07T09:26:24.404Z,49.58
2022-09-07T09:29:27.032Z,50.14
2022-09-07T09:32:35.108Z,48.54
2022-09-07T09:35:38.848Z,48.65
2022-09-07T09:38:43.604Z,48.57
2022-09-07T09:41:46.305Z,48.38
2022-09-07T09:44:50.197Z,47.52
2022-09-07T09:47:54.744Z,47.31
2022-09-07T09:54:33.127Z,45.58
2022-09-07T10:01:35.936Z,45.87
2022-09-07T10:04:39.313Z,46.17
2022-09-07T10:07:51.478Z,46.17
2022-09-07T10:11:00.700Z,45.06
2022-09-07T10:14:04.389Z,46.13
2022-09-07T10:17:18.639Z,45.15
2022-09-07T10:20:37.807Z,44.27
2022-09-07T10:23:40.829Z,43.58
2022-09-07T10:26:44.827Z,44.79
2022-09-07T10:29:47.737Z,43.93
2022-09-07T10:32:56.843Z,43.93
2022-09-07T10:36:27.879Z,44.22
2022-09-07T10:40:05.248Z,43.30
2022-09-07T10:43:26.318Z,43.80
2022-09-07T10:53:42.320Z,42.84
2022-09-07T10:56:52.835Z,42.37
2022-09-07T11:00:09.875Z,43.27
2022-09-07T11:03:28.861Z,42.25
2022-09-07T11:06:48.938Z,41.84
2022-09-07T11:09:59.454Z,41.80
2022-09-07T11:13:04.879Z,41.08
2022-09-07T11:16:50.597Z,41.05
2022-09-07T11:20:04.091Z,41.27
2022-09-07T11:23:24.564Z,39.98
2022-09-07T11:26:51.277Z,39.13
2022-09-07T11:30:04.842Z,40.23
2022-09-07T11:33:29.711Z,39.85
2022-09-07T11:36:37.729Z,40.47
2022-09-07T11:39:46.345Z,39.68
2022-09-07T11:42:52.764Z,39.52
2022-09-07T11:45:57.263Z,38.10
2022-09-07T11:49:04.483Z,39.13
2022-09-07T11:52:31.516Z,39.56
2022-09-07T11:55:37.733Z,38.79
2022-09-07T11:59:11.960Z,38.84
2022-09-07T12:02:58.406Z,38.52
2022-09-07T12:06:45.906Z,38.91
2022-09-07T12:09:50.934Z,38.47
2022-09-07T12:12:56.754Z,38.46
2022-09-07T12:16:27.758Z,38.66
2022-09-07T12:19:30.649Z,38.84
2022-09-07T12:22:34.364Z,37.54
2022-09-07T12:25:37.493Z,37.34
2022-09-07T12:28:39.978Z,37.76
2022-09-07T12:32:00.033Z,37.10
2022-09-07T12:35:29.960Z,37.37
2022-09-07T12:38:34.014Z,37.92
2022-09-07T12:45:30.994Z,38.13
2022-09-07T12:48:50.174Z,37.87
2022-09-07T12:52:31.484Z,37.07
2022-09-07T12:59:20.298Z,36.97
2022-09-07T13:02:27.810Z,36.65
2022-09-07T13:05:52.720Z,36.56
2022-09-07T13:08:55.522Z,36.80
2022-09-07T13:12:00.257Z,36.78
2022-09-07T13:15:02.766Z,36.89
2022-09-07T13:18:06.028Z,36.69
2022-09-07T13:21:08.467Z,36.52
2022-09-07T13:27:55.013Z,35.89
2022-09-07T13:31:01.098Z,36.04
2022-09-07T13:34:32.196Z,36.11
2022-09-07T13:37:44.617Z,36.25
2022-09-07T13:40:48.513Z,36.77
2022-09-07T13:43:57.127Z,36.82
2022-09-07T13:47:45.294Z,36.28
2022-09-07T13:51:25.999Z,35.97
2022-09-07T13:54:50.464Z,35.33
2022-09-07T13:58:12.937Z,35.59
2022-09-07T14:01:25.037Z,35.79
2022-09-07T14:04:44.287Z,35.76
2022-09-07T14:07:47.426Z,35.23
2022-09-07T14:10:50.507Z,35.63
2022-09-07T14:14:16.357Z,36.12
2022-09-07T14:17:19.617Z,34.71
2022-09-07T14:20:23.417Z,34.50
2022-09-07T14:23:31.683Z,35.21
2022-09-07T14:26:34.450Z,35.32
2022-09-07T14:29:37.200Z,35.20
2022-09-07T14:32:40.288Z,35.19
2022-09-07T14:35:43.446Z,35.30
2022-09-07T14:42:15.528Z,36.28
2022-09-07T14:45:21.927Z,36.86
2022-09-07T14:48:32.350Z,37.27
2022-09-07T14:51:36.812Z,36.90
2022-09-07T14:54:39.966Z,37.18
2022-09-07T14:57:42.694Z,37.85
2022-09-07T15:04:18.613Z,37.00
2022-09-07T15:07:28.904Z,37.23
2022-09-07T15:10:35.604Z,38.38
2022-09-07T15:13:40.829Z,37.75
2022-09-07T15:16:44.771Z,37.55
2022-09-07T15:19:50.309Z,37.73
2022-09-07T15:22:53.097Z,37.90
2022-09-07T15:25:55.892Z,38.14
2022-09-07T15:29:13.954Z,38.27
2022-09-07T15:32:18.144Z,37.85
2022-09-07T15:35:20.863Z,38.73
2022-09-07T15:41:46.193Z,38.91
2022-09-07T15:44:50.305Z,39.90
2022-09-07T15:47:53.617Z,39.94
2022-09-07T15:52:04.918Z,39.86
2022-09-07T15:54:30.139Z,40.21
2022-09-07T15:57:50.201Z,40.21
2022-09-07T16:04:18.409Z,41.00
2022-09-07T16:07:22.143Z,41.47
2022-09-07T16:10:25.817Z,41.96
2022-09-07T16:13:31.476Z,42.76
2022-09-07T16:19:57.624Z,44.07
2022-09-07T16:23:16.783Z,43.91
2022-09-07T16:26:23.322Z,44.49
2022-09-07T16:29:26.530Z,44.80
2022-09-07T16:32:44.803Z,44.74
2022-09-07T16:36:02.279Z,45.20
2022-09-07T16:39:04.911Z,45.72
2022-09-07T16:42:07.827Z,46.10
2022-09-07T16:48:35.150Z,46.85
2022-09-07T16:51:39.623Z,47.42
2022-09-07T16:54:42.888Z,47.61
2022-09-07T17:01:10.792Z,48.52
2022-09-07T17:04:13.551Z,49.55
2022-09-07T17:07:16.401Z,49.66
2022-09-07T17:10:18.829Z,50.02
2022-09-07T17:13:21.587Z,50.12
2022-09-07T17:16:27.147Z,50.58
2022-09-07T17:19:30.465Z,50.73
2022-09-07T17:22:33.101Z,50.94
2022-09-07T17:25:35.931Z,51.66
2022-09-07T17:28:39.115Z,51.58
2022-09-07T17:35:05.128Z,52.43
2022-09-07T17:41:34.548Z,53.06
2022-09-07T17:44:38.423Z,53.52
2022-09-07T17:47:41.095Z,53.94
2022-09-07T17:50:43.883Z,54.12
2022-09-07T17:53:46.563Z,54.62
2022-09-07T17:56:49.384Z,54.89
2022-09-07T18:03:14.848Z,54.94
2022-09-07T18:06:17.827Z,55.13
2022-09-07T18:09:20.659Z,55.45
2022-09-07T18:12:23.254Z,55.52
2022-09-07T18:15:26.104Z,55.97
2022-09-07T18:18:30.183Z,56.20
2022-09-07T18:21:35.231Z,56.36
2022-09-07T18:24:37.771Z,56.64
2022-09-07T18:27:40.910Z,57.04
2022-09-07T18:30:43.460Z,57.39
2022-09-07T18:33:47.573Z,57.78
2022-09-07T18:36:50.686Z,57.53
2022-09-07T18:39:54.500Z,57.72
2022-09-07T18:42:57.506Z,57.88
2022-09-07T18:46:13.508Z,58.20
2022-09-07T18:49:16.089Z,58.34
2022-09-07T18:55:43.888Z,58.80
2022-09-07T18:58:47.677Z,58.85
2022-09-07T19:01:50.457Z,59.08
2022-09-07T19:08:16.313Z,60.12
2022-09-07T19:11:22.156Z,60.16
2022-09-07T19:14:24.641Z,60.26
2022-09-07T19:17:27.576Z,60.51
2022-09-07T19:20:30.185Z,60.50
2022-09-07T19:23:33.216Z,60.71
2022-09-07T19:26:38.074Z,60.91
2022-09-07T19:29:40.891Z,61.95
2022-09-07T19:32:43.583Z,61.39
2022-09-07T19:35:46.542Z,61.45
2022-09-07T19:38:49.541Z,61.21
2022-09-07T19:41:52.943Z,61.17
2022-09-07T19:44:55.427Z,61.17
2022-09-07T19:47:58.443Z,60.72
2022-09-07T19:51:06.153Z,61.10
2022-09-07T19:54:10.363Z,61.19
2022-09-07T19:57:12.872Z,61.10
2022-09-07T20:00:15.925Z,61.35
2022-09-07T20:03:18.756Z,61.19
2022-09-07T20:06:21.288Z,61.34
2022-09-07T20:09:25.841Z,61.41
2022-09-07T20:12:28.298Z,61.65
2022-09-07T20:15:31.226Z,61.70
2022-09-07T20:18:35.702Z,61.95
2022-09-07T20:21:38.454Z,62.06
2022-09-07T20:24:41.083Z,62.56
2022-09-07T20:27:43.913Z,62.81
2022-09-07T20:30:46.452Z,63.31
2022-09-07T20:33:50.751Z,63.29
2022-09-07T20:36:53.781Z,63.18
2022-09-07T20:39:56.614Z,63.07
2022-09-07T20:42:59.201Z,63.30
2022-09-07T20:46:03.109Z,63.63
2022-09-07T20:49:05.757Z,63.87
2022-09-07T20:52:08.478Z,64.14
2022-09-07T20:55:11.066Z,64.12
2022-09-07T20:58:13.894Z,64.30
2022-09-07T21:01:18.101Z,64.06
2022-09-07T21:04:21.053Z,63.94
2022-09-07T21:07:23.591Z,64.16
2022-09-07T21:10:26.975Z,64.22
2022-09-07T21:13:29.484Z,64.24
2022-09-07T21:16:32.814Z,64.41
2022-09-07T21:19:36.871Z,64.82
2022-09-07T21:22:39.647Z,64.94
2022-09-07T21:25:43.977Z,65.22
2022-09-07T21:28:46.751Z,65.26
2022-09-07T21:31:49.625Z,65.13
2022-09-07T21:34:52.403Z,65.19
2022-09-07T21:37:54.863Z,65.44
2022-09-07T21:40:57.774Z,65.39
2022-09-07T21:44:02.160Z,65.51
2022-09-07T21:47:05.136Z,65.69
2022-09-07T21:50:08.069Z,65.91
2022-09-07T21:53:11.037Z,65.70
2022-09-07T21:56:14.321Z,65.98
2022-09-07T21:59:17.094Z,66.06
2022-09-07T22:02:19.733Z,66.51
2022-09-07T22:05:22.558Z,66.73
2022-09-07T22:08:25.107Z,66.89
2022-09-07T22:11:29.046Z,68.04
2022-09-07T22:14:31.721Z,67.83
2022-09-07T22:17:34.531Z,67.88
2022-09-07T22:20:37.055Z,68.23
2022-09-07T22:23:42.860Z,68.38
2022-09-07T22:26:46.412Z,68.62
2022-09-07T22:29:49.199Z,68.98
2022-09-07T22:32:51.866Z,69.19
2022-09-07T22:35:54.634Z,69.36
2022-09-07T22:38:58.903Z,69.51
2022-09-07T22:42:01.674Z,69.51
2022-09-07T22:45:05.751Z,69.83
2022-09-07T22:48:08.551Z,69.67
2022-09-07T22:51:11.800Z,69.91
2022-09-07T22:54:14.597Z,69.63
2022-09-07T22:57:17.148Z,69.68
2022-09-07T23:00:20.087Z,69.80
2022-09-07T23:03:22.590Z,69.98
2022-09-07T23:06:26.525Z,70.06
2022-09-07T23:09:29.087Z,70.37
2022-09-07T23:12:31.864Z,70.49
2022-09-07T23:15:36.244Z,70.46
2022-09-07T23:18:42.880Z,70.56
2022-09-07T23:21:45.587Z,70.81
2022-09-07T23:24:48.337Z,71.01
2022-09-07T23:27:50.848Z,71.03
2022-09-07T23:30:53.753Z,71.14
2022-09-07T23:33:57.491Z,71.30
2022-09-07T23:37:00.304Z,71.32
2022-09-07T23:40:03.817Z,71.58
2022-09-07T23:43:06.591Z,71.33
2022-09-07T23:46:10.470Z,71.37
2022-09-07T23:49:13.251Z,71.48
2022-09-07T23:52:15.722Z,71.67
2022-09-07T23:55:18.719Z,71.82
2022-09-07T23:58:21.988Z,71.84
